createdAt,value
2024-04-21T00:01:48.057Z,84.49
2024-04-21T00:04:15.420Z,84.92
2024-04-21T00:06:42.764Z,83.79
2024-04-21T00:09:09.956Z,84.91
2024-04-21T00:11:37.121Z,84.63
2024-04-21T00:14:04.495Z,84.42
2024-04-21T00:16:31.776Z,83.84
2024-04-21T00:18:59.043Z,83.89
2024-04-21T00:21:26.395Z,84.70
2024-04-21T00:23:53.585Z,84.27
2024-04-21T00:26:20.824Z,84.34
2024-04-21T00:28:50.877Z,83.98
2024-04-21T00:31:18.197Z,84.67
2024-04-21T00:33:45.515Z,84.58
2024-04-21T00:36:12.748Z,84.33
2024-04-21T00:38:39.916Z,84.24
2024-04-21T00:41:07.097Z,84.03
2024-04-21T00:43:34.255Z,84.00
2024-04-21T00:46:02.220Z,85.13
2024-04-21T00:48:29.430Z,84.39
2024-04-21T00:50:57.259Z,85.45
2024-04-21T00:53:25.428Z,84.61
2024-04-21T00:55:53.937Z,84.25
2024-04-21T00:58:21.194Z,86.36
2024-04-21T01:00:48.690Z,85.81
2024-04-21T01:03:16.352Z,85.19
2024-04-21T01:05:43.531Z,84.61
2024-04-21T01:08:11.151Z,84.36
2024-04-21T01:10:38.342Z,83.60
2024-04-21T01:13:13.151Z,83.77
2024-04-21T01:15:40.747Z,83.82
2024-04-21T01:18:08.786Z,85.43
2024-04-21T01:20:36.599Z,85.54
2024-04-21T01:23:04.711Z,84.25
2024-04-21T01:25:31.873Z,83.89
2024-04-21T01:27:59.132Z,84.53
2024-04-21T01:30:26.406Z,85.58
2024-04-21T01:32:53.799Z,85.34
2024-04-21T01:35:21.056Z,85.44
2024-04-21T01:37:48.219Z,85.11
2024-04-21T01:40:17.135Z,84.89
2024-04-21T01:42:44.528Z,84.99
2024-04-21T01:45:11.890Z,84.74
2024-04-21T01:47:39.153Z,85.48
2024-04-21T01:50:11.316Z,84.10
2024-04-21T01:52:39.423Z,85.66
2024-04-21T01:55:06.832Z,84.69
2024-04-21T01:57:34.050Z,83.99
2024-04-21T02:00:01.229Z,85.01
2024-04-21T02:02:28.514Z,84.67
2024-04-21T02:04:55.848Z,84.45
2024-04-21T02:07:23.074Z,84.81
2024-04-21T02:09:50.284Z,84.41
2024-04-21T02:12:17.480Z,83.93
2024-04-21T02:14:44.640Z,84.05
2024-04-21T02:17:11.816Z,84.81
2024-04-21T02:19:39.000Z,84.70
2024-04-21T02:22:06.164Z,84.73
2024-04-21T02:24:41.587Z,85.30
2024-04-21T02:27:08.743Z,85.21
2024-04-21T02:29:35.959Z,85.48
2024-04-21T02:32:03.270Z,84.79
2024-04-21T02:34:30.466Z,84.63
2024-04-21T02:36:57.655Z,85.05
2024-04-21T02:39:24.828Z,83.79
2024-04-21T02:41:51.996Z,84.49
2024-04-21T02:44:19.160Z,84.95
2024-04-21T02:46:47.225Z,84.67
2024-04-21T02:49:15.498Z,85.29
2024-04-21T02:51:42.769Z,85.93
2024-04-21T02:54:09.975Z,86.72
2024-04-21T02:56:37.144Z,85.73
2024-04-21T02:59:04.350Z,86.13
2024-04-21T03:01:31.694Z,85.95
2024-04-21T03:03:59.126Z,86.16
2024-04-21T03:06:26.489Z,84.23
2024-04-21T03:08:53.650Z,85.01
2024-04-21T03:11:20.823Z,84.59
2024-04-21T03:13:48.471Z,84.31
2024-04-21T03:16:15.939Z,85.45
2024-04-21T03:18:43.245Z,84.55
2024-04-21T03:21:10.395Z,85.20
2024-04-21T03:23:37.648Z,85.69
2024-04-21T03:26:05.370Z,84.76
2024-04-21T03:28:32.608Z,84.45
2024-04-21T03:31:01.600Z,85.10
2024-04-21T03:33:29.119Z,84.75
2024-04-21T03:36:03.881Z,84.66
2024-04-21T03:38:31.765Z,86.25
2024-04-21T03:40:58.944Z,85.70
2024-04-21T03:43:26.233Z,85.42
2024-04-21T03:45:53.530Z,85.89
2024-04-21T03:48:20.717Z,86.28
2024-04-21T03:50:47.902Z,86.32
2024-04-21T03:53:18.034Z,86.11
2024-04-21T03:55:45.610Z,85.97
2024-04-21T03:58:13.785Z,86.14
2024-04-21T04:00:41.045Z,85.89
2024-04-21T04:03:08.413Z,86.35
2024-04-21T04:05:35.634Z,87.08
2024-04-21T04:08:02.801Z,86.53
2024-04-21T04:10:30.022Z,86.20
2024-04-21T04:12:57.686Z,84.86
2024-04-21T04:15:24.882Z,85.53
2024-04-21T04:17:52.109Z,85.33
2024-04-21T04:20:19.619Z,84.53
2024-04-21T04:22:46.997Z,85.27
2024-04-21T04:25:14.310Z,85.27
2024-04-21T04:27:41.567Z,85.61
2024-04-21T04:30:09.213Z,85.27
2024-04-21T04:32:36.489Z,85.79
2024-04-21T04:35:03.900Z,84.96
2024-04-21T04:37:31.132Z,84.30
2024-04-21T04:39:58.334Z,84.11
2024-04-21T04:42:25.517Z,84.77
2024-04-21T04:44:52.911Z,83.27
2024-04-21T04:47:20.097Z,82.94
2024-04-21T04:49:47.316Z,83.81
2024-04-21T04:52:14.494Z,84.26
2024-04-21T04:54:41.665Z,83.69
2024-04-21T04:57:08.834Z,83.40
2024-04-21T04:59:36.015Z,84.17
2024-04-21T05:02:03.192Z,84.08
2024-04-21T05:04:30.530Z,84.36
2024-04-21T05:06:57.765Z,84.68
2024-04-21T05:09:25.045Z,84.53
2024-04-21T05:11:52.215Z,84.50
2024-04-21T05:14:19.437Z,84.13
2024-04-21T05:16:46.765Z,84.84
2024-04-21T05:19:14.052Z,85.41
2024-04-21T05:21:41.260Z,83.73
2024-04-21T05:24:08.422Z,84.28
2024-04-21T05:26:36.129Z,84.46
2024-04-21T05:29:03.283Z,84.59
2024-04-21T05:31:30.446Z,84.37
2024-04-21T05:33:57.644Z,84.30
2024-04-21T05:36:24.875Z,84.51
2024-04-21T05:38:53.255Z,84.53
2024-04-21T05:41:20.508Z,85.24
2024-04-21T05:43:48.237Z,85.47
2024-04-21T05:46:15.500Z,85.72
2024-04-21T05:48:42.666Z,85.72
2024-04-21T05:51:09.860Z,85.67
2024-04-21T05:53:37.033Z,84.98
2024-04-21T05:56:04.984Z,84.95
2024-04-21T05:58:32.256Z,85.07
2024-04-21T06:01:01.195Z,85.51
2024-04-21T06:03:28.462Z,85.81
2024-04-21T06:05:55.620Z,85.90
2024-04-21T06:08:22.787Z,85.23
2024-04-21T06:10:49.936Z,84.89
2024-04-21T06:13:17.119Z,84.16
2024-04-21T06:15:44.281Z,84.01
2024-04-21T06:18:11.500Z,85.74
2024-04-21T06:20:38.717Z,83.89
2024-04-21T06:23:05.904Z,84.38
2024-04-21T06:25:33.070Z,83.94
2024-04-21T06:28:00.361Z,84.20
2024-04-21T06:30:27.606Z,82.86
2024-04-21T06:32:54.847Z,83.46
2024-04-21T06:35:22.041Z,83.00
2024-04-21T06:37:49.211Z,83.71
2024-04-21T06:40:17.452Z,82.40
2024-04-21T06:42:44.859Z,83.94
2024-04-21T06:45:12.526Z,82.55
2024-04-21T06:47:39.732Z,83.79
2024-04-21T06:50:06.984Z,83.57
2024-04-21T06:52:34.386Z,84.33
2024-04-21T06:55:01.600Z,84.00
2024-04-21T06:57:28.928Z,84.05
2024-04-21T06:59:56.094Z,84.72
2024-04-21T07:02:23.376Z,83.79
2024-04-21T07:04:50.689Z,83.50
2024-04-21T07:07:18.997Z,83.04
2024-04-21T07:09:46.378Z,82.26
2024-04-21T07:12:13.569Z,82.50
2024-04-21T07:14:40.744Z,83.00
2024-04-21T07:17:08.738Z,82.58
2024-04-21T07:19:35.982Z,82.92
2024-04-21T07:22:03.285Z,83.15
2024-04-21T07:24:32.580Z,81.65
2024-04-21T07:27:01.227Z,83.08
2024-04-21T07:29:28.381Z,82.23
2024-04-21T07:31:55.988Z,83.54
2024-04-21T07:34:23.444Z,83.01
2024-04-21T07:36:50.700Z,83.09
2024-04-21T07:39:18.958Z,82.67
2024-04-21T07:41:46.205Z,80.96
2024-04-21T07:44:13.374Z,83.00
2024-04-21T07:46:40.610Z,82.76
2024-04-21T07:49:07.945Z,82.05
2024-04-21T07:51:35.170Z,81.71
2024-04-21T07:54:02.376Z,82.91
2024-04-21T07:56:29.577Z,81.47
2024-04-21T07:58:56.788Z,81.21
2024-04-21T08:01:24.080Z,80.75
2024-04-21T08:03:51.372Z,81.90
2024-04-21T08:06:18.616Z,82.15
2024-04-21T08:08:48.112Z,83.01
2024-04-21T08:11:17.863Z,81.75
2024-04-21T08:13:45.344Z,82.48
2024-04-21T08:16:12.589Z,82.21
2024-04-21T08:18:39.866Z,82.19
2024-04-21T08:21:07.247Z,80.78
2024-04-21T08:23:34.445Z,82.19
2024-04-21T08:26:04.223Z,81.85
2024-04-21T08:28:31.620Z,81.22
2024-04-21T08:30:58.886Z,79.56
2024-04-21T08:33:28.043Z,80.65
2024-04-21T08:35:59.262Z,80.35
2024-04-21T08:38:27.172Z,79.47
2024-04-21T08:40:54.333Z,79.42
2024-04-21T08:43:27.346Z,78.97
2024-04-21T08:45:56.412Z,74.70
2024-04-21T08:48:26.714Z,77.89
2024-04-21T08:50:53.945Z,77.55
2024-04-21T08:53:21.137Z,76.65
2024-04-21T08:55:50.097Z,77.76
2024-04-21T08:58:18.741Z,76.04
2024-04-21T09:00:49.614Z,75.95
2024-04-21T09:03:17.832Z,74.17
2024-04-21T09:05:51.307Z,76.64
2024-04-21T09:08:18.461Z,72.65
2024-04-21T09:10:45.714Z,76.48
2024-04-21T09:13:13.007Z,72.20
2024-04-21T09:15:40.186Z,72.86
2024-04-21T09:18:08.011Z,73.91
2024-04-21T09:20:38.281Z,75.01
2024-04-21T09:23:08.861Z,73.92
2024-04-21T09:25:37.775Z,73.38
2024-04-21T09:28:05.669Z,72.97
2024-04-21T09:30:32.882Z,73.08
2024-04-21T09:33:00.168Z,71.73
2024-04-21T09:35:27.413Z,71.78
2024-04-21T09:37:55.314Z,73.02
2024-04-21T09:40:24.785Z,72.85
2024-04-21T09:42:52.275Z,71.14
2024-04-21T09:45:21.079Z,73.27
2024-04-21T09:47:48.992Z,70.00
2024-04-21T09:50:16.501Z,68.31
2024-04-21T09:52:48.556Z,71.97
2024-04-21T09:55:16.010Z,71.88
2024-04-21T09:57:45.366Z,71.22
2024-04-21T10:00:14.517Z,71.28
2024-04-21T10:02:48.287Z,71.46
2024-04-21T10:05:19.690Z,72.86
2024-04-21T10:07:52.256Z,72.07
2024-04-21T10:10:24.856Z,70.95
2024-04-21T10:12:53.027Z,71.79
2024-04-21T10:15:22.809Z,72.17
2024-04-21T10:17:57.641Z,69.82
2024-04-21T10:20:36.061Z,68.25
2024-04-21T10:23:12.619Z,70.35
2024-04-21T10:25:45.346Z,67.99
2024-04-21T10:28:25.960Z,70.65
2024-04-21T10:31:03.540Z,67.67
2024-04-21T10:33:30.483Z,66.79
2024-04-21T10:35:57.629Z,62.64
2024-04-21T10:38:25.226Z,63.34
2024-04-21T10:40:52.559Z,64.04
2024-04-21T10:43:26.308Z,65.28
2024-04-21T10:45:59.200Z,65.65
2024-04-21T10:48:26.610Z,62.99
2024-04-21T10:50:54.644Z,64.30
2024-04-21T10:53:22.006Z,63.53
2024-04-21T10:55:54.966Z,65.70
2024-04-21T10:58:22.712Z,66.61
2024-04-21T11:00:50.737Z,65.85
2024-04-21T11:03:18.151Z,66.29
2024-04-21T11:06:02.394Z,66.42
2024-04-21T11:08:29.981Z,66.52
2024-04-21T11:10:57.983Z,65.98
2024-04-21T11:13:25.444Z,66.18
2024-04-21T11:15:52.777Z,63.87
2024-04-21T11:18:20.552Z,64.63
2024-04-21T11:20:48.159Z,66.87
2024-04-21T11:23:20.110Z,66.67
2024-04-21T11:25:53.750Z,68.76
2024-04-21T11:28:23.631Z,65.76
2024-04-21T11:31:04.754Z,63.35
2024-04-21T11:33:35.533Z,67.57
2024-04-21T11:36:21.271Z,66.61
2024-04-21T11:38:50.501Z,67.70
2024-04-21T11:41:17.714Z,67.07
2024-04-21T11:43:54.090Z,63.96
2024-04-21T11:46:21.282Z,65.16
2024-04-21T11:48:53.377Z,67.28
2024-04-21T11:51:21.022Z,72.64
2024-04-21T11:53:49.072Z,74.76
2024-04-21T11:56:16.241Z,75.82
2024-04-21T11:58:43.438Z,75.40
2024-04-21T12:01:10.827Z,75.82
2024-04-21T12:03:38.268Z,75.70
2024-04-21T12:06:05.502Z,73.77
2024-04-21T12:08:32.700Z,75.24
2024-04-21T12:10:59.973Z,75.23
2024-04-21T12:13:27.249Z,75.11
2024-04-21T12:15:54.548Z,74.14
2024-04-21T12:18:21.739Z,75.33
2024-04-21T12:20:48.918Z,75.03
2024-04-21T12:23:16.059Z,74.61
2024-04-21T12:25:43.243Z,73.33
2024-04-21T12:28:10.478Z,73.91
2024-04-21T12:30:39.788Z,73.81
2024-04-21T12:33:08.813Z,75.18
2024-04-21T12:35:36.143Z,74.32
2024-04-21T12:38:04.949Z,73.73
2024-04-21T12:40:32.220Z,73.14
2024-04-21T12:42:59.496Z,73.73
2024-04-21T12:45:26.708Z,73.66
2024-04-21T12:47:53.972Z,72.82
2024-04-21T12:50:21.319Z,73.34
2024-04-21T12:52:48.515Z,74.48
2024-04-21T12:55:15.743Z,74.29
2024-04-21T12:57:43.761Z,73.71
2024-04-21T13:00:11.348Z,74.04
2024-04-21T13:02:39.675Z,73.11
2024-04-21T13:05:07.671Z,72.66
2024-04-21T13:07:34.959Z,73.18
2024-04-21T13:10:02.296Z,74.04
2024-04-21T13:12:30.591Z,72.15
2024-04-21T13:14:58.105Z,71.49
2024-04-21T13:17:25.350Z,72.83
2024-04-21T13:19:52.569Z,73.42
2024-04-21T13:22:20.874Z,71.91
2024-04-21T13:24:48.101Z,72.14
2024-04-21T13:27:15.326Z,73.06
2024-04-21T13:29:45.393Z,71.78
2024-04-21T13:32:12.697Z,72.94
2024-04-21T13:34:39.875Z,72.73
2024-04-21T13:37:07.102Z,71.94
2024-04-21T13:39:34.344Z,73.19
2024-04-21T13:42:01.737Z,71.19
2024-04-21T13:44:28.932Z,71.12
2024-04-21T13:46:56.122Z,71.12
2024-04-21T13:49:23.308Z,70.74
2024-04-21T13:51:50.579Z,72.02
2024-04-21T13:54:17.836Z,71.87
2024-04-21T13:56:45.061Z,73.27
2024-04-21T13:59:13.820Z,72.88
2024-04-21T14:01:41.045Z,73.74
2024-04-21T14:04:08.291Z,73.21
2024-04-21T14:06:35.538Z,72.59
2024-04-21T14:09:02.814Z,72.70
2024-04-21T14:11:30.738Z,72.61
2024-04-21T14:13:59.216Z,71.30
2024-04-21T14:16:27.779Z,71.44
2024-04-21T14:18:56.923Z,72.07
2024-04-21T14:21:25.739Z,71.92
2024-04-21T14:23:52.931Z,70.23
2024-04-21T14:26:20.106Z,69.24
2024-04-21T14:28:47.337Z,69.50
2024-04-21T14:31:14.537Z,68.91
2024-04-21T14:33:41.747Z,69.74
2024-04-21T14:36:08.902Z,69.94
2024-04-21T14:38:36.047Z,69.34
2024-04-21T14:41:03.210Z,69.46
2024-04-21T14:43:33.406Z,69.48
2024-04-21T14:46:00.853Z,72.47
2024-04-21T14:48:28.141Z,74.64
2024-04-21T14:50:58.933Z,77.80
2024-04-21T14:53:26.375Z,76.49
2024-04-21T14:55:57.220Z,79.05
2024-04-21T14:58:24.590Z,79.01
2024-04-21T15:00:51.881Z,78.61
2024-04-21T15:03:19.249Z,80.00
2024-04-21T15:05:46.515Z,79.79
2024-04-21T15:08:13.700Z,79.60
2024-04-21T15:10:40.917Z,81.39
2024-04-21T15:13:08.131Z,82.49
2024-04-21T15:15:35.285Z,81.32
2024-04-21T15:18:02.657Z,81.74
2024-04-21T15:20:29.882Z,80.16
2024-04-21T15:22:57.074Z,80.95
2024-04-21T15:25:24.401Z,81.07
2024-04-21T15:27:54.309Z,82.26
2024-04-21T15:30:22.043Z,81.21
2024-04-21T15:32:49.466Z,82.50
2024-04-21T15:35:16.952Z,82.11
2024-04-21T15:37:44.272Z,81.83
2024-04-21T15:40:13.688Z,82.07
2024-04-21T15:42:41.482Z,81.58
2024-04-21T15:45:09.279Z,80.37
2024-04-21T15:47:36.831Z,81.45
2024-04-21T15:50:04.904Z,82.11
2024-04-21T15:52:32.259Z,81.84
2024-04-21T15:55:01.033Z,81.21
2024-04-21T15:57:28.949Z,81.82
2024-04-21T15:59:56.235Z,82.52
2024-04-21T16:02:23.448Z,81.47
2024-04-21T16:04:50.708Z,81.76
2024-04-21T16:07:19.507Z,81.05
2024-04-21T16:09:46.987Z,80.92
2024-04-21T16:12:14.140Z,82.21
2024-04-21T16:14:41.308Z,82.08
2024-04-21T16:17:09.049Z,81.80
2024-04-21T16:19:36.355Z,82.48
2024-04-21T16:22:03.664Z,82.09
2024-04-21T16:24:30.903Z,81.96
2024-04-21T16:26:58.036Z,81.54
2024-04-21T16:29:25.201Z,81.82
2024-04-21T16:31:52.342Z,80.38
2024-04-21T16:34:19.765Z,81.04
2024-04-21T16:36:47.045Z,80.79
2024-04-21T16:39:14.427Z,82.01
2024-04-21T16:41:41.839Z,82.13
2024-04-21T16:44:09.313Z,82.74
2024-04-21T16:46:40.861Z,82.43
2024-04-21T16:49:08.499Z,82.53
2024-04-21T16:51:35.852Z,82.79
2024-04-21T16:54:03.253Z,83.08
2024-04-21T16:56:34.942Z,83.21
2024-04-21T16:59:02.579Z,82.88
2024-04-21T17:01:30.014Z,83.01
2024-04-21T17:03:57.753Z,83.81
2024-04-21T17:06:26.346Z,84.24
2024-04-21T17:08:54.382Z,84.92
2024-04-21T17:11:21.788Z,86.08
2024-04-21T17:13:49.476Z,84.66
2024-04-21T17:16:17.068Z,83.92
2024-04-21T17:18:45.149Z,83.74
2024-04-21T17:21:12.762Z,84.25
2024-04-21T17:23:40.027Z,83.52
2024-04-21T17:26:07.272Z,84.96
2024-04-21T17:28:34.532Z,85.08
2024-04-21T17:31:01.797Z,84.05
2024-04-21T17:33:29.135Z,86.03
2024-04-21T17:35:56.349Z,84.24
2024-04-21T17:38:23.991Z,84.14
2024-04-21T17:40:52.214Z,84.96
2024-04-21T17:43:19.402Z,84.58
2024-04-21T17:45:46.823Z,84.15
2024-04-21T17:48:14.546Z,85.27
2024-04-21T17:50:41.742Z,85.39
2024-04-21T17:53:08.902Z,85.18
2024-04-21T17:55:36.178Z,84.71
2024-04-21T17:58:03.398Z,84.59
2024-04-21T18:00:30.926Z,85.52
2024-04-21T18:02:58.391Z,84.18
2024-04-21T18:05:25.596Z,83.89
2024-04-21T18:07:55.640Z,84.16
2024-04-21T18:10:23.520Z,84.80
2024-04-21T18:12:50.753Z,85.00
2024-04-21T18:15:17.936Z,86.41
2024-04-21T18:17:45.101Z,85.69
2024-04-21T18:20:12.290Z,84.08
2024-04-21T18:22:39.860Z,83.94
2024-04-21T18:25:07.610Z,84.58
2024-04-21T18:27:34.846Z,84.13
2024-04-21T18:30:02.202Z,83.94
2024-04-21T18:32:29.567Z,83.24
2024-04-21T18:34:56.847Z,83.53
2024-04-21T18:37:24.026Z,83.24
2024-04-21T18:39:51.351Z,83.46
2024-04-21T18:42:19.029Z,84.07
2024-04-21T18:44:51.481Z,83.18
2024-04-21T18:47:18.876Z,84.00
2024-04-21T18:49:46.175Z,83.04
2024-04-21T18:52:13.448Z,82.77
2024-04-21T18:54:41.002Z,83.84
2024-04-21T18:57:08.162Z,84.25
2024-04-21T18:59:38.908Z,83.95
2024-04-21T19:02:14.352Z,83.48
2024-04-21T19:04:41.620Z,82.29
2024-04-21T19:07:08.842Z,83.83
2024-04-21T19:09:36.513Z,83.11
2024-04-21T19:12:03.979Z,84.15
2024-04-21T19:14:31.424Z,84.62
2024-04-21T19:16:58.936Z,83.79
2024-04-21T19:19:26.407Z,83.71
2024-04-21T19:21:53.768Z,84.28
2024-04-21T19:24:21.102Z,84.10
2024-04-21T19:26:48.293Z,85.17
2024-04-21T19:29:15.455Z,85.50
2024-04-21T19:31:42.641Z,84.15
2024-04-21T19:34:09.868Z,83.34
2024-04-21T19:36:37.075Z,84.35
2024-04-21T19:39:04.267Z,84.15
2024-04-21T19:41:31.441Z,84.40
2024-04-21T19:43:58.599Z,83.42
2024-04-21T19:46:26.788Z,82.70
2024-04-21T19:48:54.126Z,83.68
2024-04-21T19:51:21.389Z,83.89
2024-04-21T19:53:48.579Z,84.41
2024-04-21T19:56:17.796Z,83.85
2024-04-21T19:58:45.109Z,83.97
2024-04-21T20:01:12.522Z,85.12
2024-04-21T20:03:39.824Z,84.83
2024-04-21T20:06:13.561Z,84.96
2024-04-21T20:08:40.722Z,84.53
2024-04-21T20:11:11.755Z,84.87
2024-04-21T20:13:39.130Z,85.60
2024-04-21T20:16:25.889Z,84.90
2024-04-21T20:18:54.261Z,84.16
2024-04-21T20:21:21.469Z,85.23
2024-04-21T20:23:48.642Z,84.53
2024-04-21T20:26:19.169Z,84.31
2024-04-21T20:28:47.251Z,85.01
2024-04-21T20:31:16.419Z,84.64
2024-04-21T20:33:48.586Z,84.07
2024-04-21T20:36:25.527Z,83.56
2024-04-21T20:38:54.785Z,83.48
2024-04-21T20:41:22.744Z,85.17
2024-04-21T20:43:51.732Z,84.43
2024-04-21T20:46:23.524Z,79.18
2024-04-21T20:48:51.998Z,79.51
2024-04-21T20:51:19.180Z,73.52
2024-04-21T20:53:46.581Z,81.91
2024-04-21T20:56:14.290Z,76.05
2024-04-21T20:58:50.075Z,76.85
2024-04-21T21:01:20.403Z,78.26
2024-04-21T21:03:49.837Z,73.90
2024-04-21T21:06:17.212Z,75.41
2024-04-21T21:08:46.358Z,73.81
2024-04-21T21:11:14.029Z,71.96
2024-04-21T21:13:41.546Z,73.68
2024-04-21T21:16:08.730Z,75.63
2024-04-21T21:18:36.098Z,76.35
2024-04-21T21:21:03.387Z,74.93
2024-04-21T21:23:30.758Z,74.39
2024-04-21T21:25:58.660Z,73.00
2024-04-21T21:28:25.895Z,75.19
2024-04-21T21:30:53.075Z,72.60
2024-04-21T21:33:20.454Z,70.13
2024-04-21T21:35:57.389Z,75.51
2024-04-21T21:38:29.855Z,76.64
2024-04-21T21:40:57.647Z,77.73
2024-04-21T21:43:25.614Z,77.27
2024-04-21T21:45:53.075Z,80.12
2024-04-21T21:48:20.323Z,78.31
2024-04-21T21:50:47.559Z,77.52
2024-04-21T21:53:14.726Z,76.61
2024-04-21T21:55:42.633Z,75.70
2024-04-21T21:58:10.266Z,76.07
2024-04-21T22:00:38.350Z,74.94
2024-04-21T22:03:05.951Z,75.71
2024-04-21T22:05:33.487Z,75.51
2024-04-21T22:08:00.705Z,75.12
2024-04-21T22:10:28.560Z,75.56
2024-04-21T22:12:56.892Z,77.92
2024-04-21T22:15:24.038Z,77.05
2024-04-21T22:17:51.382Z,76.35
2024-04-21T22:20:20.073Z,76.54
2024-04-21T22:22:50.717Z,76.67
2024-04-21T22:25:19.548Z,75.58
2024-04-21T22:27:46.756Z,76.90
2024-04-21T22:30:13.920Z,74.52
2024-04-21T22:32:42.589Z,78.57
2024-04-21T22:35:09.890Z,77.99
2024-04-21T22:37:37.105Z,77.82
2024-04-21T22:40:04.679Z,77.57
2024-04-21T22:42:31.992Z,78.26
2024-04-21T22:44:59.247Z,79.06
2024-04-21T22:47:26.531Z,78.48
2024-04-21T22:49:54.124Z,75.54
2024-04-21T22:52:23.734Z,74.62
2024-04-21T22:54:51.133Z,78.73
2024-04-21T22:57:18.308Z,79.79
2024-04-21T22:59:45.467Z,78.12
2024-04-21T23:02:12.667Z,77.94
2024-04-21T23:04:39.905Z,78.06
2024-04-21T23:07:07.482Z,78.48
2024-04-21T23:09:34.782Z,78.91
2024-04-21T23:12:01.997Z,77.49
2024-04-21T23:14:29.229Z,77.88
2024-04-21T23:16:56.411Z,77.99
2024-04-21T23:19:23.625Z,77.39
2024-04-21T23:21:50.817Z,77.85
2024-04-21T23:24:17.985Z,77.91
2024-04-21T23:26:45.141Z,78.32
2024-04-21T23:29:12.324Z,78.66
2024-04-21T23:31:39.548Z,80.00
2024-04-21T23:34:08.703Z,79.65
2024-04-21T23:36:36.105Z,78.52
2024-04-21T23:39:03.461Z,80.54
2024-04-21T23:41:30.688Z,80.11
2024-04-21T23:43:57.917Z,80.30
2024-04-21T23:46:25.170Z,81.13
2024-04-21T23:48:52.363Z,79.80
2024-04-21T23:51:19.515Z,79.09
2024-04-21T23:53:46.713Z,79.51
2024-04-21T23:56:13.968Z,78.73
2024-04-21T23:58:41.171Z,79.59
